Time;durP1;ratioP1;P1;durP2;ratioP2;P2;SDS_P1;SDS_P2;PMS_P1;PMS_P2;Temp;Humidity;BMP_temperature;BMP_pressure;BME280_temperature;BME280_humidity;BME280_pressure;Samples;Min_cycle;Max_cycle;Signal;HPM_P1;HPM_P2
2022/03/21 00:00:00;;;;;;;56.03;33.20;;;;;;;2.99;93.18;102922.75;5082743;28;20061;-69
2022/03/21 00:02:26;;;;;;;53.17;32.30;;;;;;;2.97;92.46;102933.19;5064424;28;20029;-69
2022/03/21 00:04:51;;;;;;;57.00;33.13;;;;;;;2.95;93.25;102920.06;5082661;28;20035;-69
2022/03/21 00:07:18;;;;;;;56.33;32.10;;;;;;;2.97;93.39;102930.56;5070782;28;20039;-69
2022/03/21 00:09:43;;;;;;;55.63;33.00;;;;;;;2.91;92.82;102940.91;5087314;28;20055;-68
2022/03/21 00:12:10;;;;;;;58.97;33.88;;;;;;;2.81;94.05;102938.94;5067122;28;20105;-70
2022/03/21 00:14:35;;;;;;;58.03;34.17;;;;;;;2.73;94.85;102941.41;5088304;28;20491;-68
2022/03/21 00:17:01;;;;;;;59.90;34.63;;;;;;;2.65;95.44;102937.72;5063789;28;20036;-68
2022/03/21 00:19:26;;;;;;;55.80;34.20;;;;;;;2.58;96.24;102940.22;5089004;28;20038;-69
2022/03/21 00:21:52;;;;;;;56.78;33.50;;;;;;;2.56;95.55;102939.28;5075944;28;20036;-69
2022/03/21 00:24:17;;;;;;;59.28;33.40;;;;;;;2.60;96.24;102938.50;5059705;28;20031;-69
2022/03/21 00:26:42;;;;;;;58.05;32.20;;;;;;;2.69;94.86;102942.19;5080360;28;20032;-69
2022/03/21 00:29:09;;;;;;;53.47;32.22;;;;;;;2.66;94.55;102940.38;5086642;28;20024;-69
2022/03/21 00:31:36;;;;;;;55.45;32.10;;;;;;;2.64;93.98;102928.13;5069645;28;20039;-68
2022/03/21 00:34:02;;;;;;;54.88;31.58;;;;;;;2.59;94.30;102934.13;5055500;28;20104;-69
2022/03/21 00:36:27;;;;;;;55.25;31.55;;;;;;;2.55;94.09;102936.66;5084347;28;20089;-68
2022/03/21 00:38:53;;;;;;;55.53;31.75;;;;;;;2.57;94.48;102927.09;5083812;28;20125;-68
2022/03/21 00:41:19;;;;;;;54.10;30.98;;;;;;;2.58;94.23;102934.09;5089594;28;20032;-69
2022/03/21 00:43:45;;;;;;;50.65;31.33;;;;;;;2.62;93.99;102934.19;5075899;28;20506;-69
2022/03/21 00:46:11;;;;;;;48.53;30.80;;;;;;;2.66;93.22;102936.88;5073256;28;20142;-69
2022/03/21 00:48:37;;;;;;;56.65;31.60;;;;;;;2.61;93.61;102940.28;5087843;28;20032;-68
2022/03/21 00:51:02;;;;;;;51.45;31.65;;;;;;;2.58;93.14;102939.31;5068208;28;20096;-69
2022/03/21 00:53:27;;;;;;;54.15;31.88;;;;;;;2.52;93.39;102937.47;5088358;28;20043;-69
2022/03/21 00:55:53;;;;;;;53.85;31.33;;;;;;;2.48;93.28;102947.81;5050425;28;20194;-69
2022/03/21 00:58:19;;;;;;;54.03;32.88;;;;;;;2.39;94.18;102932.78;5080571;28;20309;-69
2022/03/21 01:00:45;;;;;;;58.17;32.90;;;;;;;2.37;94.67;102937.13;5082514;28;20024;-69
2022/03/21 01:03:11;;;;;;;54.45;31.63;;;;;;;2.35;94.60;102942.28;5083839;28;20024;-69
2022/03/21 01:05:36;;;;;;;54.85;31.52;;;;;;;2.38;94.97;102949.31;5091933;28;20039;-69
2022/03/21 01:08:02;;;;;;;54.08;31.73;;;;;;;2.40;95.14;102943.28;5080876;28;20151;-68
2022/03/21 01:10:28;;;;;;;51.65;30.15;;;;;;;2.38;94.44;102946.69;5068023;28;20079;-69
2022/03/21 01:12:54;;;;;;;54.42;31.58;;;;;;;2.33;93.92;102943.09;5091496;28;20043;-68
2022/03/21 01:15:23;;;;;;;55.45;31.15;;;;;;;2.23;94.47;102945.50;5081183;28;20039;-70
2022/03/21 01:17:50;;;;;;;50.22;29.70;;;;;;;2.15;94.70;102954.91;5072914;28;20036;-70
2022/03/21 01:20:19;;;;;;;49.50;28.65;;;;;;;2.09;94.08;102947.78;5090461;28;20403;-70
2022/03/21 01:22:44;;;;;;;51.00;30.23;;;;;;;1.99;93.67;102955.38;5085973;28;20047;-70
2022/03/21 01:25:11;;;;;;;53.92;31.05;;;;;;;1.85;95.28;102955.88;5063060;28;20024;-70
2022/03/21 01:27:38;;;;;;;53.45;30.88;;;;;;;1.80;95.34;102953.19;5089800;28;20024;-71
2022/03/21 01:30:05;;;;;;;51.60;29.98;;;;;;;1.75;95.60;102952.19;5065071;28;20020;-70
2022/03/21 01:32:32;;;;;;;52.33;30.77;;;;;;;1.71;95.80;102946.81;5076854;28;20135;-70
2022/03/21 01:34:57;;;;;;;54.33;30.80;;;;;;;1.60;96.84;102947.44;5082430;28;20035;-70
2022/03/21 01:37:23;;;;;;;54.42;31.25;;;;;;;1.49;97.00;102954.09;5083343;28;20056;-68
2022/03/21 01:39:48;;;;;;;56.40;32.35;;;;;;;1.40;98.00;102953.84;5085966;28;20111;-68
2022/03/21 01:42:14;;;;;;;56.83;33.00;;;;;;;1.34;99.10;102953.66;5073664;28;20399;-71
2022/03/21 01:44:40;;;;;;;61.58;32.60;;;;;;;1.26;99.51;102956.94;5085609;28;20122;-70
2022/03/21 01:47:06;;;;;;;58.80;33.97;;;;;;;1.19;99.94;102964.56;5087418;28;20127;-70
2022/03/21 01:49:32;;;;;;;57.92;33.67;;;;;;;1.13;100.00;102968.75;5091087;28;20467;-69
2022/03/21 01:51:57;;;;;;;63.70;33.05;;;;;;;1.08;100.00;102962.53;5068321;28;20028;-70
2022/03/21 01:57:07;;;;;;;62.65;34.30;;;;;;;1.05;100.00;102969.38;5082988;28;20061;-70
2022/03/21 01:59:34;;;;;;;56.65;32.83;;;;;;;1.05;100.00;102972.88;5083345;28;20505;-70
2022/03/21 02:01:59;;;;;;;58.33;33.33;;;;;;;1.05;100.00;102966.75;5064876;28;20066;-70
2022/03/21 02:04:24;;;;;;;63.40;33.92;;;;;;;1.07;100.00;102970.31;5067526;28;20036;-70
2022/03/21 02:06:50;;;;;;;57.35;32.72;;;;;;;1.09;100.00;102971.25;5078970;28;20154;-70
2022/03/21 02:09:15;;;;;;;61.50;33.95;;;;;;;1.04;100.00;102965.88;5086806;28;20407;-69
2022/03/21 02:11:41;;;;;;;58.35;32.67;;;;;;;1.07;100.00;102970.31;5077328;28;20024;-70
2022/03/21 02:14:08;;;;;;;61.95;34.95;;;;;;;1.01;100.00;102967.53;5064109;28;20398;-70
2022/03/21 02:16:35;;;;;;;57.53;32.85;;;;;;;0.97;100.00;102970.06;5088519;28;20059;-70
2022/03/21 02:19:23;;;;;;;63.50;33.40;;;;;;;0.96;100.00;102983.06;5071645;28;20133;-70
2022/03/21 02:22:25;;;;;;;66.32;35.80;;;;;;;0.95;100.00;102966.50;5063371;28;20028;-71
2022/03/21 02:25:27;;;;;;;65.30;34.88;;;;;;;0.96;100.00;102965.66;5085791;28;20020;-70
2022/03/21 02:27:56;;;;;;;56.28;33.58;;;;;;;0.96;100.00;102972.63;5019944;28;20035;-70
2022/03/21 02:30:21;;;;;;;58.67;33.72;;;;;;;0.92;100.00;102975.97;5088597;28;20024;-71
2022/03/21 02:32:47;;;;;;;67.03;34.50;;;;;;;0.92;100.00;102966.44;5091648;28;20451;-70
2022/03/21 02:35:14;;;;;;;60.63;34.95;;;;;;;0.95;100.00;102969.09;5068287;28;20033;-70
2022/03/21 02:37:42;;;;;;;69.35;35.70;;;;;;;0.97;100.00;102966.53;5087507;28;20049;-71
2022/03/21 02:40:08;;;;;;;65.75;35.55;;;;;;;0.91;100.00;102972.47;5089643;28;20028;-70
2022/03/21 02:42:34;;;;;;;61.05;34.60;;;;;;;0.88;100.00;102974.09;5046292;28;20029;-70
2022/03/21 02:44:59;;;;;;;62.05;34.88;;;;;;;0.86;100.00;102976.66;5072991;28;20047;-70
2022/03/21 02:47:24;;;;;;;61.22;33.65;;;;;;;0.84;100.00;102982.69;5091824;28;20462;-70
2022/03/21 02:49:51;;;;;;;60.60;34.38;;;;;;;0.79;100.00;102982.53;5082760;28;20056;-70
2022/03/21 02:52:19;;;;;;;56.78;32.05;;;;;;;0.78;100.00;102976.44;5075804;28;20040;-70
2022/03/21 02:54:44;;;;;;;64.60;36.92;;;;;;;0.79;100.00;102978.22;5081351;28;20037;-71
2022/03/21 02:57:10;;;;;;;63.47;34.90;;;;;;;0.80;100.00;102979.09;5072867;28;20186;-70
2022/03/21 02:59:35;;;;;;;67.85;37.08;;;;;;;0.78;100.00;102978.16;5087210;28;20036;-70
2022/03/21 03:02:00;;;;;;;65.78;36.05;;;;;;;0.80;100.00;102981.69;5045602;28;20586;-71
2022/03/21 03:04:27;;;;;;;65.13;36.15;;;;;;;0.84;100.00;102980.94;5061171;28;20032;-70
2022/03/21 03:06:53;;;;;;;67.05;36.85;;;;;;;0.86;100.00;102978.38;5078627;28;20067;-71
2022/03/21 03:09:19;;;;;;;63.45;35.33;;;;;;;0.86;100.00;102980.97;5076943;28;20503;-70
2022/03/21 03:11:44;;;;;;;62.90;34.72;;;;;;;0.86;100.00;102983.59;5086062;28;20034;-70
2022/03/21 03:14:10;;;;;;;67.13;35.03;;;;;;;0.84;100.00;102985.28;5086535;28;20032;-71
2022/03/21 03:16:36;;;;;;;69.45;37.75;;;;;;;0.89;100.00;102983.69;5084721;28;20032;-71
2022/03/21 03:19:02;;;;;;;69.65;36.50;;;;;;;0.95;100.00;102982.16;5083976;28;20064;-70
2022/03/21 03:21:33;;;;;;;65.05;35.85;;;;;;;1.03;100.00;102976.28;5077017;28;20462;-71
2022/03/21 03:24:00;;;;;;;65.80;36.28;;;;;;;1.10;100.00;102976.50;5083871;28;20063;-71
2022/03/21 03:26:25;;;;;;;64.38;35.58;;;;;;;1.12;100.00;102982.63;5083446;28;20031;-71
2022/03/21 03:28:50;;;;;;;65.80;36.72;;;;;;;1.15;100.00;102981.84;5064732;28;20036;-70
2022/03/21 03:31:18;;;;;;;71.18;37.53;;;;;;;1.19;100.00;102988.94;5078935;28;20082;-69
2022/03/21 03:33:45;;;;;;;66.55;36.17;;;;;;;1.22;100.00;102991.63;5066235;28;20082;-69
2022/03/21 03:36:11;;;;;;;63.08;34.83;;;;;;;1.20;100.00;102987.22;5068933;28;20028;-69
2022/03/21 03:38:37;;;;;;;66.38;35.58;;;;;;;1.13;100.00;102996.59;5082769;28;20105;-70
2022/03/21 03:41:02;;;;;;;66.20;37.05;;;;;;;1.05;100.00;102998.97;5088829;28;20028;-70
2022/03/21 03:43:29;;;;;;;68.82;36.70;;;;;;;1.07;100.00;102999.88;5076895;28;20070;-69
2022/03/21 03:45:57;;;;;;;67.70;36.22;;;;;;;1.00;100.00;102992.75;5064005;28;20016;-69
2022/03/21 03:48:22;;;;;;;65.22;34.85;;;;;;;0.93;100.00;102998.59;5059176;28;20024;-69
2022/03/21 03:50:48;;;;;;;65.22;35.70;;;;;;;0.88;100.00;102997.59;5071346;28;20037;-69
2022/03/21 03:53:15;;;;;;;65.43;35.35;;;;;;;0.84;100.00;103001.81;5080716;28;20074;-70
2022/03/21 03:55:41;;;;;;;60.78;34.33;;;;;;;0.85;100.00;102998.38;5069146;28;20162;-69
2022/03/21 03:58:07;;;;;;;69.15;35.58;;;;;;;0.87;100.00;103001.94;5072064;28;20115;-69
2022/03/21 04:00:32;;;;;;;64.97;35.35;;;;;;;0.88;100.00;103003.66;5079816;28;20386;-69
2022/03/21 04:05:41;;;;;;;67.60;36.45;;;;;;;0.94;100.00;103005.59;5073319;28;20087;-70
2022/03/21 04:08:07;;;;;;;69.57;37.47;;;;;;;0.97;100.00;103005.69;5081020;28;20024;-69
2022/03/21 04:10:33;;;;;;;65.22;36.17;;;;;;;1.02;100.00;103008.44;5093082;28;20031;-70
2022/03/21 04:12:59;;;;;;;66.43;36.42;;;;;;;1.05;100.00;103001.59;5080231;28;20080;-70
2022/03/21 04:15:24;;;;;;;67.30;36.90;;;;;;;1.15;100.00;103010.56;5084424;28;20115;-71
2022/03/21 04:17:50;;;;;;;66.25;36.33;;;;;;;1.25;100.00;103004.78;5071997;28;20055;-71
2022/03/21 04:20:16;;;;;;;59.28;34.33;;;;;;;1.30;100.00;103010.13;5071717;28;21087;-71
2022/03/21 04:22:42;;;;;;;64.75;35.30;;;;;;;1.31;99.98;103002.31;5060299;28;20075;-71
2022/03/21 04:25:10;;;;;;;57.88;33.30;;;;;;;1.33;99.60;103005.00;5074932;28;20051;-70
2022/03/21 04:27:36;;;;;;;61.28;34.80;;;;;;;1.34;98.82;103008.47;5080797;28;20035;-70
2022/03/21 04:30:03;;;;;;;66.10;35.60;;;;;;;1.35;98.83;103003.31;5075589;28;20069;-70
2022/03/21 04:32:28;;;;;;;61.10;33.70;;;;;;;1.29;98.05;103008.34;5084097;28;20035;-70
2022/03/21 04:34:54;;;;;;;59.90;33.00;;;;;;;1.25;98.25;103007.41;5066227;28;20036;-70
2022/03/21 04:37:19;;;;;;;55.95;33.65;;;;;;;1.19;98.82;103008.91;5084643;28;20044;-70
2022/03/21 04:39:45;;;;;;;62.53;32.95;;;;;;;1.11;99.12;103013.91;5061313;28;20045;-70
2022/03/21 04:42:10;;;;;;;54.70;33.15;;;;;;;1.05;99.44;103016.34;5060938;28;20024;-71
2022/03/21 04:44:36;;;;;;;62.08;34.33;;;;;;;0.94;99.88;103016.03;5057032;28;20039;-70
2022/03/21 04:47:01;;;;;;;64.55;34.83;;;;;;;0.94;100.00;103011.69;5063171;28;20513;-70
2022/03/21 04:49:27;;;;;;;59.50;34.08;;;;;;;0.91;100.00;103022.03;5057573;28;20143;-70
2022/03/21 04:51:53;;;;;;;66.05;35.45;;;;;;;0.90;100.00;103020.25;5080382;28;20097;-69
2022/03/21 04:54:18;;;;;;;63.42;35.20;;;;;;;0.91;100.00;103026.34;5075783;28;20391;-70
2022/03/21 04:56:43;;;;;;;60.15;33.53;;;;;;;0.91;100.00;103022.03;5086951;28;20040;-70
2022/03/21 04:59:09;;;;;;;66.13;35.50;;;;;;;0.89;100.00;103028.91;5065059;28;20028;-69
2022/03/21 05:01:36;;;;;;;60.28;34.72;;;;;;;0.84;100.00;103021.81;5049542;28;20070;-69
2022/03/21 05:04:01;;;;;;;59.65;34.38;;;;;;;0.80;100.00;103026.91;5086129;28;20393;-69
2022/03/21 05:06:27;;;;;;;61.05;35.10;;;;;;;0.81;100.00;103023.47;5080755;28;20548;-69
2022/03/21 05:08:52;;;;;;;62.90;35.40;;;;;;;0.79;100.00;103019.03;5077807;28;20039;-69
2022/03/21 05:11:18;;;;;;;63.03;35.35;;;;;;;0.77;100.00;103023.34;5058516;28;20029;-69
2022/03/21 05:13:43;;;;;;;64.90;34.92;;;;;;;0.75;100.00;103025.88;5071559;28;20380;-70
2022/03/21 05:16:08;;;;;;;63.33;35.70;;;;;;;0.73;100.00;103032.78;5064304;28;20040;-69
2022/03/21 05:18:34;;;;;;;63.30;34.33;;;;;;;0.72;100.00;103020.59;5085423;28;20118;-69
2022/03/21 05:21:00;;;;;;;61.72;34.15;;;;;;;0.67;100.00;103023.91;5062083;28;20101;-71
2022/03/21 05:31:38;;;;;;;65.15;35.13;;;;;;;0.53;100.00;103034.75;5066710;28;20455;-71
2022/03/21 05:36:47;;;;;;;71.50;37.47;;;;;;;0.67;100.00;103048.25;5087133;28;20117;-69
2022/03/21 05:39:13;;;;;;;66.97;36.05;;;;;;;0.73;100.00;103040.63;5062324;28;20487;-70
2022/03/21 05:41:38;;;;;;;64.68;35.53;;;;;;;0.75;100.00;103038.91;5085708;28;20413;-69
2022/03/21 05:44:04;;;;;;;64.38;35.70;;;;;;;0.84;100.00;103045.28;5085424;28;20077;-70
2022/03/21 05:46:30;;;;;;;60.65;34.28;;;;;;;0.89;100.00;103052.41;5071446;28;20826;-69
2022/03/21 05:48:59;;;;;;;67.18;34.25;;;;;;;0.87;100.00;103050.59;5088764;28;20035;-69
2022/03/21 05:51:28;;;;;;;63.58;34.58;;;;;;;0.82;99.80;103053.94;5074015;28;20125;-69
2022/03/21 05:53:54;;;;;;;62.72;33.85;;;;;;;0.78;99.73;103059.00;5085934;28;20119;-69
2022/03/21 05:56:21;;;;;;;63.72;35.83;;;;;;;0.75;99.89;103057.19;5079357;28;20454;-69
2022/03/21 05:58:47;;;;;;;63.05;35.40;;;;;;;0.70;100.00;103060.50;5083731;28;20043;-69
2022/03/21 06:01:15;;;;;;;59.83;34.30;;;;;;;0.68;99.98;103059.53;5087660;28;20031;-69
2022/03/21 06:03:41;;;;;;;60.50;34.33;;;;;;;0.66;100.00;103059.50;5087785;28;20484;-69
2022/03/21 06:06:07;;;;;;;61.38;33.95;;;;;;;0.68;100.00;103065.66;5092082;28;20110;-69
2022/03/21 06:08:32;;;;;;;61.90;34.63;;;;;;;0.71;100.00;103062.28;5087075;28;20030;-70
2022/03/21 06:11:03;;;;;;;66.43;34.45;;;;;;;0.76;100.00;103066.78;5080112;28;20352;-69
2022/03/21 06:13:33;;;;;;;66.55;35.85;;;;;;;0.85;100.00;103070.53;5088541;28;20024;-69
2022/03/21 06:16:03;;;;;;;70.03;36.50;;;;;;;0.90;100.00;103075.03;5067013;28;20042;-69
2022/03/21 06:18:30;;;;;;;68.68;36.45;;;;;;;0.95;100.00;103076.06;5048917;28;20115;-70
2022/03/21 06:20:55;;;;;;;66.05;37.15;;;;;;;1.03;100.00;103072.81;5064227;28;20026;-69
2022/03/21 06:23:21;;;;;;;68.90;38.05;;;;;;;1.09;100.00;103073.91;5089966;28;20114;-70
2022/03/21 06:25:46;;;;;;;67.38;36.80;;;;;;;1.15;100.00;103083.63;5079178;28;20837;-70
2022/03/21 06:28:12;;;;;;;67.25;36.55;;;;;;;1.22;100.00;103082.97;5090645;28;20036;-69
2022/03/21 06:30:37;;;;;;;68.78;37.30;;;;;;;1.31;100.00;103088.47;5091559;28;20031;-69
2022/03/21 06:33:03;;;;;;;67.63;35.60;;;;;;;1.36;100.00;103085.13;5050359;28;20028;-69
2022/03/21 06:35:28;;;;;;;71.18;37.25;;;;;;;1.42;100.00;103088.81;5081609;28;20021;-68
2022/03/21 06:37:54;;;;;;;63.40;36.60;;;;;;;1.54;100.00;103082.16;5086252;28;20458;-71
2022/03/21 06:40:20;;;;;;;68.22;38.22;;;;;;;1.67;100.00;103084.28;5078080;28;20035;-71
2022/03/21 06:42:46;;;;;;;67.25;37.08;;;;;;;1.83;100.00;103084.72;5060717;28;20040;-71
2022/03/21 06:45:11;;;;;;;67.65;37.60;;;;;;;1.95;100.00;103083.31;5077987;28;20024;-71
2022/03/21 06:47:37;;;;;;;67.22;37.03;;;;;;;2.06;100.00;103090.56;5072135;28;20029;-69
2022/03/21 06:50:04;;;;;;;64.65;35.92;;;;;;;2.15;99.49;103095.16;5076813;28;20537;-70
2022/03/21 06:52:29;;;;;;;62.30;35.65;;;;;;;2.20;99.24;103101.38;5090250;28;20032;-69
2022/03/21 06:54:54;;;;;;;63.80;36.15;;;;;;;2.26;99.54;103092.00;5093567;28;20085;-70
2022/03/21 06:57:21;;;;;;;65.80;36.53;;;;;;;2.33;98.97;103100.88;5094418;28;20069;-69
2022/03/21 06:59:47;;;;;;;68.00;38.35;;;;;;;2.46;99.44;103096.84;5081838;28;20533;-69
2022/03/21 07:02:15;;;;;;;66.25;37.75;;;;;;;2.58;97.97;103098.88;5074880;28;20372;-69
2022/03/21 07:04:41;;;;;;;64.93;37.42;;;;;;;2.65;98.76;103098.19;5094759;28;20024;-70
2022/03/21 07:07:06;;;;;;;65.05;36.65;;;;;;;2.75;98.25;103099.28;5090316;28;20098;-70
2022/03/21 07:09:32;;;;;;;65.55;37.60;;;;;;;2.83;97.19;103100.38;5094406;28;20043;-69
2022/03/21 07:11:57;;;;;;;59.83;35.60;;;;;;;2.93;97.32;103106.72;5063410;28;20028;-71
2022/03/21 07:14:23;;;;;;;63.10;37.00;;;;;;;3.03;97.44;103107.78;5082648;28;20081;-69
2022/03/21 07:16:49;;;;;;;64.97;36.85;;;;;;;3.11;96.70;103107.13;5068888;28;20395;-69
2022/03/21 07:19:14;;;;;;;63.35;37.13;;;;;;;3.23;96.38;103110.88;5057777;28;20032;-71
2022/03/21 07:21:40;;;;;;;63.78;37.25;;;;;;;3.29;96.53;103113.63;5073508;28;20487;-72
2022/03/21 07:24:06;;;;;;;66.78;37.85;;;;;;;3.37;96.02;103111.19;5074524;28;20047;-69
2022/03/21 07:26:32;;;;;;;62.47;37.25;;;;;;;3.48;95.37;103121.88;5088575;28;20020;-69
2022/03/21 07:28:57;;;;;;;62.65;36.78;;;;;;;3.56;95.23;103115.94;5085470;28;20398;-69
2022/03/21 07:31:23;;;;;;;61.60;37.78;;;;;;;3.66;95.32;103108.28;5085631;28;20039;-69
2022/03/21 07:33:49;;;;;;;62.67;36.90;;;;;;;3.74;95.08;103122.44;5085834;28;20092;-71
2022/03/21 07:36:14;;;;;;;63.00;37.88;;;;;;;3.80;94.83;103125.19;5072225;28;20028;-70
2022/03/21 07:38:39;;;;;;;63.28;36.90;;;;;;;3.90;94.95;103121.88;5091205;28;20087;-69
2022/03/21 07:41:07;;;;;;;67.68;37.47;;;;;;;3.98;94.86;103122.03;5068718;28;20044;-70
2022/03/21 07:43:36;;;;;;;65.88;37.85;;;;;;;4.06;94.49;103127.44;5070697;28;20028;-69
2022/03/21 07:48:46;;;;;;;64.78;38.45;;;;;;;4.31;93.87;103128.78;5088999;28;20388;-74
2022/03/21 07:51:12;;;;;;;63.53;36.92;;;;;;;4.41;93.26;103130.72;5078149;28;20024;-69
2022/03/21 07:53:38;;;;;;;59.83;36.45;;;;;;;4.52;92.93;103130.00;5083953;28;20448;-69
2022/03/21 07:56:04;;;;;;;60.85;35.45;;;;;;;4.64;92.80;103127.56;5062631;28;20043;-70
2022/03/21 07:58:31;;;;;;;63.08;37.45;;;;;;;4.76;92.76;103129.53;5090499;28;20024;-70
2022/03/21 08:00:59;;;;;;;59.45;36.60;;;;;;;4.88;91.46;103136.72;5072518;28;20101;-70
2022/03/21 08:03:25;;;;;;;61.70;35.70;;;;;;;4.98;91.66;103141.25;5075383;28;20084;-70
2022/03/21 08:05:52;;;;;;;61.78;38.15;;;;;;;5.11;91.14;103137.06;5092402;28;20024;-70
2022/03/21 08:08:19;;;;;;;57.03;35.13;;;;;;;5.21;90.54;103146.00;5094307;28;20028;-70
2022/03/21 08:10:45;;;;;;;58.75;35.20;;;;;;;5.29;89.08;103139.09;5075927;28;20032;-69
2022/03/21 08:13:13;;;;;;;58.35;36.20;;;;;;;5.40;89.53;103131.38;5072363;28;20099;-69
2022/03/21 08:15:38;;;;;;;56.28;34.53;;;;;;;5.48;88.62;103129.72;5072519;28;20037;-70
2022/03/21 08:18:04;;;;;;;59.80;36.42;;;;;;;5.56;87.78;103135.97;5074183;28;20036;-70
2022/03/21 08:20:34;;;;;;;56.70;34.75;;;;;;;5.73;87.07;103141.44;5075347;28;20035;-70
2022/03/21 08:23:06;;;;;;;56.53;34.70;;;;;;;5.87;87.01;103138.97;5079300;28;20119;-70
2022/03/21 08:25:32;;;;;;;56.22;34.22;;;;;;;6.04;85.47;103143.59;5087679;28;20504;-70
2022/03/21 08:27:58;;;;;;;53.47;34.22;;;;;;;6.15;85.32;103146.31;5084971;28;20051;-70
2022/03/21 08:30:24;;;;;;;54.78;34.45;;;;;;;6.21;84.64;103136.78;5088531;28;20067;-69
2022/03/21 08:32:49;;;;;;;54.20;34.08;;;;;;;6.31;84.49;103142.13;5093106;28;20081;-69
2022/03/21 08:35:18;;;;;;;52.35;34.28;;;;;;;6.47;84.52;103140.50;5088562;28;20047;-69
2022/03/21 08:37:44;;;;;;;55.83;33.92;;;;;;;6.65;84.16;103139.78;5093618;28;20044;-69
2022/03/21 08:40:11;;;;;;;56.60;33.63;;;;;;;6.77;82.22;103128.50;5089249;28;20649;-69
2022/03/21 08:42:37;;;;;;;52.47;33.65;;;;;;;6.83;82.06;103141.69;5075667;28;20024;-69
2022/03/21 08:45:07;;;;;;;51.67;32.72;;;;;;;6.99;81.85;103137.44;5077192;28;20059;-69
2022/03/21 08:47:33;;;;;;;51.05;32.60;;;;;;;7.11;81.40;103145.44;5072353;28;20429;-68
2022/03/21 08:49:58;;;;;;;54.10;32.25;;;;;;;7.20;81.64;103132.31;5073253;28;20012;-68
2022/03/21 08:52:23;;;;;;;55.05;31.75;;;;;;;7.34;80.13;103131.50;5073250;28;20041;-67
2022/03/21 08:54:49;;;;;;;49.72;32.72;;;;;;;7.42;79.53;103140.34;5081982;28;20028;-68
2022/03/21 08:57:14;;;;;;;48.75;31.48;;;;;;;7.50;78.34;103141.25;5073094;28;20539;-69
2022/03/21 08:59:40;;;;;;;49.45;31.30;;;;;;;7.61;77.91;103143.94;5073234;28;20054;-69
2022/03/21 09:02:05;;;;;;;50.45;30.30;;;;;;;7.73;77.80;103150.16;5055265;28;20095;-69
2022/03/21 09:04:31;;;;;;;48.17;30.17;;;;;;;7.86;77.40;103134.38;5072959;28;20107;-68
2022/03/21 09:06:56;;;;;;;46.60;29.88;;;;;;;7.98;76.91;103143.19;5093080;28;20054;-69
2022/03/21 09:09:22;;;;;;;50.00;30.88;;;;;;;8.13;75.90;103142.38;5075093;28;20028;-69
2022/03/21 09:11:47;;;;;;;46.55;30.15;;;;;;;8.28;76.15;103142.41;5074955;28;20035;-68
2022/03/21 09:14:14;;;;;;;43.85;28.60;;;;;;;8.63;76.22;103138.06;5092919;28;20035;-69
2022/03/21 09:16:42;;;;;;;43.95;27.90;;;;;;;9.24;72.98;103138.91;5088457;28;20020;-69
2022/03/21 09:19:08;;;;;;;44.35;29.40;;;;;;;10.26;71.51;103133.16;5076810;28;20028;-69
2022/03/21 09:21:33;;;;;;;39.60;27.52;;;;;;;11.96;64.92;103136.81;5072882;28;20036;-69
2022/03/21 09:23:59;;;;;;;41.15;25.13;;;;;;;13.53;54.27;103138.59;5074948;28;20047;-69
2022/03/21 09:26:24;;;;;;;37.28;26.75;;;;;;;14.91;46.78;103136.28;5071045;28;20044;-69
2022/03/21 09:28:49;;;;;;;36.78;26.45;;;;;;;15.47;43.87;103123.22;5080438;28;20032;-69
2022/03/21 09:31:16;;;;;;;40.05;26.85;;;;;;;16.34;41.27;103132.16;5073075;28;20037;-69
2022/03/21 09:33:42;;;;;;;31.98;25.33;;;;;;;17.48;38.84;103125.53;5081373;28;20028;-70
2022/03/21 09:36:09;;;;;;;35.88;25.85;;;;;;;17.76;37.66;103135.19;5081589;28;20103;-70
2022/03/21 09:38:36;;;;;;;33.55;25.27;;;;;;;18.13;35.49;103130.19;5064418;28;20048;-70
2022/03/21 09:41:03;;;;;;;39.55;25.85;;;;;;;17.98;35.65;103126.31;5070425;28;20412;-70
2022/03/21 09:43:29;;;;;;;36.03;25.30;;;;;;;18.34;34.25;103128.47;5071461;28;20044;-69
2022/03/21 09:45:59;;;;;;;32.35;24.65;;;;;;;18.59;34.59;103130.13;5065472;28;20072;-69
2022/03/21 09:48:28;;;;;;;34.92;26.05;;;;;;;18.33;35.61;103130.25;5071819;28;20028;-70
2022/03/21 09:50:56;;;;;;;31.30;23.92;;;;;;;18.46;33.10;103127.94;5069767;28;20059;-69
2022/03/21 09:53:22;;;;;;;32.25;24.10;;;;;;;18.57;33.81;103127.50;5052090;28;20029;-69
2022/03/21 09:55:48;;;;;;;32.22;24.85;;;;;;;19.08;33.45;103128.03;5050748;28;20345;-69
2022/03/21 09:58:14;;;;;;;31.23;23.55;;;;;;;19.62;32.21;103128.25;5062917;28;20036;-68
2022/03/21 10:00:41;;;;;;;31.17;23.85;;;;;;;20.27;30.54;103119.78;5067802;28;20025;-68
2022/03/21 10:03:06;;;;;;;31.85;23.02;;;;;;;19.92;30.87;103125.09;5071773;28;20121;-67
2022/03/21 10:05:43;;;;;;;32.67;23.40;;;;;;;20.00;31.14;103122.03;5042122;28;20040;-67
2022/03/21 10:08:16;;;;;;;29.13;22.27;;;;;;;19.97;30.00;103119.47;5055003;28;20055;-67
2022/03/21 10:11:01;;;;;;;33.03;22.65;;;;;;;20.40;30.10;103111.09;5071644;28;20086;-67
2022/03/21 10:13:33;;;;;;;28.23;21.42;;;;;;;20.57;29.29;103115.63;5070236;28;20387;-67
2022/03/21 10:16:28;;;;;;;26.75;21.15;;;;;;;20.63;29.91;103121.56;5062706;28;20451;-68
2022/03/21 10:18:53;;;;;;;28.13;21.83;;;;;;;21.09;27.94;103120.13;5051874;28;20049;-67
2022/03/21 10:21:24;;;;;;;28.00;21.15;;;;;;;21.06;28.95;103114.91;5059668;28;20036;-69
2022/03/21 10:24:08;;;;;;;25.90;20.67;;;;;;;20.90;27.62;103122.94;5070041;28;20036;-68
2022/03/21 10:26:41;;;;;;;26.35;20.48;;;;;;;21.40;27.91;103118.47;5069488;28;20024;-67
2022/03/21 10:29:10;;;;;;;28.05;19.58;;;;;;;21.43;27.17;103120.97;5070121;28;20484;-67
2022/03/21 10:31:44;;;;;;;25.08;19.27;;;;;;;21.32;26.55;103120.69;5071073;28;20085;-68
2022/03/21 10:34:18;;;;;;;28.10;20.25;;;;;;;21.32;27.07;103120.69;5061866;28;20078;-69
2022/03/21 10:37:03;;;;;;;22.02;17.77;;;;;;;21.79;25.14;103117.25;5070762;28;20029;-68
2022/03/21 10:39:39;;;;;;;19.63;15.70;;;;;;;21.95;24.45;103124.47;5069236;28;20056;-68
2022/03/21 10:42:09;;;;;;;24.75;18.38;;;;;;;21.88;24.65;103118.53;5071467;28;20659;-68
2022/03/21 10:44:36;;;;;;;20.30;15.35;;;;;;;21.78;24.41;103115.50;5069878;28;20108;-68
2022/03/21 10:47:04;;;;;;;19.58;16.10;;;;;;;21.69;23.61;103114.19;5070726;28;20028;-67
2022/03/21 10:49:33;;;;;;;19.90;14.95;;;;;;;21.86;23.74;103115.06;5069088;28;20033;-68
2022/03/21 10:52:00;;;;;;;18.20;14.13;;;;;;;21.84;24.25;103112.47;5071010;28;20207;-68
2022/03/21 10:54:35;;;;;;;19.05;13.85;;;;;;;21.67;23.42;103113.38;5069115;28;20464;-68
2022/03/21 10:57:00;;;;;;;16.80;12.88;;;;;;;22.20;22.71;103103.19;5070800;28;20033;-68
2022/03/21 10:59:26;;;;;;;17.80;12.48;;;;;;;22.22;21.67;103097.69;5059240;28;20115;-68
2022/03/21 11:02:09;;;;;;;17.10;11.35;;;;;;;22.69;21.12;103104.81;5071337;28;20029;-68
2022/03/21 11:04:36;;;;;;;15.63;11.57;;;;;;;22.96;20.31;103104.09;5062093;28;20037;-68
2022/03/21 11:07:04;;;;;;;17.58;11.15;;;;;;;22.86;20.04;103103.78;5067456;28;20468;-68
2022/03/21 11:09:30;;;;;;;14.88;10.15;;;;;;;23.05;21.41;103099.94;5062593;28;20078;-68
2022/03/21 11:11:57;;;;;;;17.02;11.80;;;;;;;22.79;20.85;103098.84;5069903;28;20028;-68
2022/03/21 11:14:23;;;;;;;18.13;12.30;;;;;;;23.15;19.96;103103.00;5062003;28;20464;-67
2022/03/21 11:16:51;;;;;;;18.20;12.02;;;;;;;22.92;20.43;103095.31;5062779;28;20097;-67
2022/03/21 11:19:16;;;;;;;16.83;13.05;;;;;;;23.26;19.70;103095.03;5061438;28;20136;-68
2022/03/21 11:21:42;;;;;;;18.63;13.88;;;;;;;22.79;20.89;103088.03;5062648;28;20154;-68
2022/03/21 11:24:11;;;;;;;20.65;14.15;;;;;;;23.16;20.36;103083.97;5048796;28;20031;-68
2022/03/21 11:26:39;;;;;;;18.02;13.15;;;;;;;23.19;20.91;103093.72;5060071;28;20036;-68
2022/03/21 11:29:22;;;;;;;17.30;12.38;;;;;;;23.26;20.04;103092.34;5071313;28;20032;-67